sensor_id;sensor_type;location;lat;lon;timestamp;P1;durP1;ratioP1;P2;durP2;ratioP2
69434;SDS011;56625;54.322;18.582;2023-09-30T00:00:17;10.80;;;6.40;;
69434;SDS011;56625;54.322;18.582;2023-09-30T00:03:05;11.10;;;6.50;;
69434;SDS011;56625;54.322;18.582;2023-09-30T00:05:33;11.60;;;6.70;;
69434;SDS011;56625;54.322;18.582;2023-09-30T00:08:01;12.80;;;7.20;;
69434;SDS011;56625;54.322;18.582;2023-09-30T00:10:28;12.60;;;7.50;;
69434;SDS011;56625;54.322;18.582;2023-09-30T00:12:58;14.10;;;8.10;;
69434;SDS011;56625;54.322;18.582;2023-09-30T00:15:26;13.00;;;8.20;;
69434;SDS011;56625;54.322;18.582;2023-09-30T00:17:54;13.90;;;8.40;;
69434;SDS011;56625;54.322;18.582;2023-09-30T00:20:22;14.00;;;8.10;;
69434;SDS011;56625;54.322;18.582;2023-09-30T00:22:50;13.00;;;7.50;;
69434;SDS011;56625;54.322;18.582;2023-09-30T00:25:18;15.00;;;7.20;;
69434;SDS011;56625;54.322;18.582;2023-09-30T00:27:46;15.40;;;7.50;;
69434;SDS011;56625;54.322;18.582;2023-09-30T00:30:15;13.10;;;6.80;;
69434;SDS011;56625;54.322;18.582;2023-09-30T00:32:43;12.50;;;8.00;;
69434;SDS011;56625;54.322;18.582;2023-09-30T00:35:11;11.70;;;7.40;;
69434;SDS011;56625;54.322;18.582;2023-09-30T00:37:39;14.60;;;8.20;;
69434;SDS011;56625;54.322;18.582;2023-09-30T00:40:09;12.40;;;7.20;;
69434;SDS011;56625;54.322;18.582;2023-09-30T00:42:41;13.20;;;7.70;;
69434;SDS011;56625;54.322;18.582;2023-09-30T00:45:09;14.30;;;8.00;;
69434;SDS011;56625;54.322;18.582;2023-09-30T00:47:38;13.40;;;7.50;;
69434;SDS011;56625;54.322;18.582;2023-09-30T00:50:07;12.00;;;7.80;;
69434;SDS011;56625;54.322;18.582;2023-09-30T00:52:38;13.20;;;8.00;;
69434;SDS011;56625;54.322;18.582;2023-09-30T00:55:07;14.10;;;7.60;;
69434;SDS011;56625;54.322;18.582;2023-09-30T00:57:36;12.30;;;7.60;;
69434;SDS011;56625;54.322;18.582;2023-09-30T01:00:08;13.90;;;7.80;;
69434;SDS011;56625;54.322;18.582;2023-09-30T01:02:40;12.90;;;7.20;;
69434;SDS011;56625;54.322;18.582;2023-09-30T01:05:10;14.00;;;7.50;;
69434;SDS011;56625;54.322;18.582;2023-09-30T01:07:39;12.00;;;7.30;;
69434;SDS011;56625;54.322;18.582;2023-09-30T01:10:07;13.80;;;7.40;;
69434;SDS011;56625;54.322;18.582;2023-09-30T01:12:35;11.70;;;7.30;;
69434;SDS011;56625;54.322;18.582;2023-09-30T01:15:04;13.10;;;7.50;;
69434;SDS011;56625;54.322;18.582;2023-09-30T01:17:35;13.60;;;7.50;;
69434;SDS011;56625;54.322;18.582;2023-09-30T01:20:04;12.70;;;7.10;;
69434;SDS011;56625;54.322;18.582;2023-09-30T01:22:36;12.60;;;7.50;;
69434;SDS011;56625;54.322;18.582;2023-09-30T01:25:05;14.40;;;7.50;;
69434;SDS011;56625;54.322;18.582;2023-09-30T01:27:34;11.10;;;7.20;;
69434;SDS011;56625;54.322;18.582;2023-09-30T01:30:02;11.20;;;7.20;;
69434;SDS011;56625;54.322;18.582;2023-09-30T01:32:30;13.00;;;7.50;;
69434;SDS011;56625;54.322;18.582;2023-09-30T01:34:59;13.00;;;7.40;;
69434;SDS011;56625;54.322;18.582;2023-09-30T01:37:27;13.40;;;8.00;;
69434;SDS011;56625;54.322;18.582;2023-09-30T01:39:58;12.50;;;7.50;;
69434;SDS011;56625;54.322;18.582;2023-09-30T01:42:25;12.70;;;6.70;;
69434;SDS011;56625;54.322;18.582;2023-09-30T01:44:53;13.00;;;7.20;;
69434;SDS011;56625;54.322;18.582;2023-09-30T01:47:22;14.00;;;7.90;;
69434;SDS011;56625;54.322;18.582;2023-09-30T01:49:50;12.60;;;7.80;;
69434;SDS011;56625;54.322;18.582;2023-09-30T01:52:18;15.70;;;8.10;;
69434;SDS011;56625;54.322;18.582;2023-09-30T01:54:45;12.20;;;7.60;;
69434;SDS011;56625;54.322;18.582;2023-09-30T01:57:13;14.50;;;7.80;;
69434;SDS011;56625;54.322;18.582;2023-09-30T01:59:41;13.50;;;8.20;;
69434;SDS011;56625;54.322;18.582;2023-09-30T02:02:09;13.90;;;8.40;;
69434;SDS011;56625;54.322;18.582;2023-09-30T02:04:37;14.30;;;7.90;;
69434;SDS011;56625;54.322;18.582;2023-09-30T02:07:05;14.20;;;8.00;;
69434;SDS011;56625;54.322;18.582;2023-09-30T02:09:33;13.90;;;7.80;;
69434;SDS011;56625;54.322;18.582;2023-09-30T02:12:01;15.30;;;8.10;;
69434;SDS011;56625;54.322;18.582;2023-09-30T02:14:29;14.20;;;8.40;;
69434;SDS011;56625;54.322;18.582;2023-09-30T02:16:57;13.90;;;8.20;;
69434;SDS011;56625;54.322;18.582;2023-09-30T02:19:25;15.70;;;8.60;;
69434;SDS011;56625;54.322;18.582;2023-09-30T02:21:55;13.50;;;8.60;;
69434;SDS011;56625;54.322;18.582;2023-09-30T02:24:23;13.80;;;8.20;;
69434;SDS011;56625;54.322;18.582;2023-09-30T02:26:51;12.60;;;7.40;;
69434;SDS011;56625;54.322;18.582;2023-09-30T02:29:19;16.60;;;9.20;;
69434;SDS011;56625;54.322;18.582;2023-09-30T02:31:47;16.80;;;9.20;;
69434;SDS011;56625;54.322;18.582;2023-09-30T02:34:15;13.90;;;9.30;;
69434;SDS011;56625;54.322;18.582;2023-09-30T02:36:44;15.30;;;8.90;;
69434;SDS011;56625;54.322;18.582;2023-09-30T02:39:11;14.00;;;9.20;;
69434;SDS011;56625;54.322;18.582;2023-09-30T02:41:39;13.30;;;7.40;;
69434;SDS011;56625;54.322;18.582;2023-09-30T02:44:07;15.60;;;9.90;;
69434;SDS011;56625;54.322;18.582;2023-09-30T02:46:35;16.00;;;9.40;;
69434;SDS011;56625;54.322;18.582;2023-09-30T02:49:03;16.90;;;9.40;;
69434;SDS011;56625;54.322;18.582;2023-09-30T02:51:31;16.50;;;9.40;;
69434;SDS011;56625;54.322;18.582;2023-09-30T02:53:59;18.80;;;9.90;;
69434;SDS011;56625;54.322;18.582;2023-09-30T02:56:27;16.50;;;9.40;;
69434;SDS011;56625;54.322;18.582;2023-09-30T02:58:58;15.60;;;8.50;;
69434;SDS011;56625;54.322;18.582;2023-09-30T03:01:27;15.70;;;8.50;;
69434;SDS011;56625;54.322;18.582;2023-09-30T03:03:55;17.50;;;9.30;;
69434;SDS011;56625;54.322;18.582;2023-09-30T03:06:24;15.70;;;8.60;;
69434;SDS011;56625;54.322;18.582;2023-09-30T03:08:52;13.50;;;8.30;;
69434;SDS011;56625;54.322;18.582;2023-09-30T03:11:20;14.30;;;8.60;;
69434;SDS011;56625;54.322;18.582;2023-09-30T03:13:50;15.50;;;8.60;;
69434;SDS011;56625;54.322;18.582;2023-09-30T03:16:18;14.90;;;8.60;;
69434;SDS011;56625;54.322;18.582;2023-09-30T03:18:47;15.20;;;8.40;;
69434;SDS011;56625;54.322;18.582;2023-09-30T03:21:17;15.40;;;8.40;;
69434;SDS011;56625;54.322;18.582;2023-09-30T03:23:45;13.90;;;8.20;;
69434;SDS011;56625;54.322;18.582;2023-09-30T03:26:13;13.70;;;7.30;;
69434;SDS011;56625;54.322;18.582;2023-09-30T03:28:41;15.40;;;7.30;;
69434;SDS011;56625;54.322;18.582;2023-09-30T03:31:08;14.90;;;7.90;;
69434;SDS011;56625;54.322;18.582;2023-09-30T03:33:38;12.90;;;8.00;;
69434;SDS011;56625;54.322;18.582;2023-09-30T03:36:08;13.80;;;7.60;;
69434;SDS011;56625;54.322;18.582;2023-09-30T03:38:37;15.10;;;7.50;;
69434;SDS011;56625;54.322;18.582;2023-09-30T03:41:05;13.80;;;7.50;;
69434;SDS011;56625;54.322;18.582;2023-09-30T03:43:35;13.00;;;6.20;;
69434;SDS011;56625;54.322;18.582;2023-09-30T03:46:08;10.90;;;6.00;;
69434;SDS011;56625;54.322;18.582;2023-09-30T03:48:37;9.90;;;4.00;;
69434;SDS011;56625;54.322;18.582;2023-09-30T03:51:10;9.00;;;3.40;;
69434;SDS011;56625;54.322;18.582;2023-09-30T03:53:43;8.70;;;2.30;;
69434;SDS011;56625;54.322;18.582;2023-09-30T03:56:12;5.60;;;1.50;;
69434;SDS011;56625;54.322;18.582;2023-09-30T03:58:41;6.90;;;1.70;;
69434;SDS011;56625;54.322;18.582;2023-09-30T04:01:10;7.80;;;1.60;;
69434;SDS011;56625;54.322;18.582;2023-09-30T04:03:41;5.00;;;1.10;;
69434;SDS011;56625;54.322;18.582;2023-09-30T04:06:11;4.40;;;1.20;;
69434;SDS011;56625;54.322;18.582;2023-09-30T04:08:40;6.10;;;1.30;;
69434;SDS011;56625;54.322;18.582;2023-09-30T04:11:08;5.60;;;1.00;;
69434;SDS011;56625;54.322;18.582;2023-09-30T04:13:36;4.50;;;0.90;;
69434;SDS011;56625;54.322;18.582;2023-09-30T04:16:04;4.90;;;1.10;;
69434;SDS011;56625;54.322;18.582;2023-09-30T04:18:32;5.60;;;0.90;;
69434;SDS011;56625;54.322;18.582;2023-09-30T04:21:00;5.40;;;0.90;;
69434;SDS011;56625;54.322;18.582;2023-09-30T04:23:29;7.30;;;0.90;;
69434;SDS011;56625;54.322;18.582;2023-09-30T04:25:57;6.70;;;0.90;;
69434;SDS011;56625;54.322;18.582;2023-09-30T04:28:24;5.40;;;0.80;;
69434;SDS011;56625;54.322;18.582;2023-09-30T04:30:52;5.00;;;0.80;;
69434;SDS011;56625;54.322;18.582;2023-09-30T04:33:21;5.70;;;0.80;;
69434;SDS011;56625;54.322;18.582;2023-09-30T04:35:52;5.30;;;0.60;;
69434;SDS011;56625;54.322;18.582;2023-09-30T04:38:20;6.90;;;1.10;;
69434;SDS011;56625;54.322;18.582;2023-09-30T04:40:48;5.70;;;0.80;;
69434;SDS011;56625;54.322;18.582;2023-09-30T04:43:18;3.90;;;0.60;;
69434;SDS011;56625;54.322;18.582;2023-09-30T04:45:47;6.50;;;1.30;;
69434;SDS011;56625;54.322;18.582;2023-09-30T04:48:17;8.10;;;1.90;;
69434;SDS011;56625;54.322;18.582;2023-09-30T04:50:45;9.50;;;1.70;;
69434;SDS011;56625;54.322;18.582;2023-09-30T04:53:13;7.20;;;1.30;;
69434;SDS011;56625;54.322;18.582;2023-09-30T04:55:41;7.20;;;1.00;;
69434;SDS011;56625;54.322;18.582;2023-09-30T04:58:09;10.30;;;1.50;;
69434;SDS011;56625;54.322;18.582;2023-09-30T05:00:37;10.30;;;1.30;;
69434;SDS011;56625;54.322;18.582;2023-09-30T05:03:05;7.40;;;1.40;;
69434;SDS011;56625;54.322;18.582;2023-09-30T05:05:33;10.50;;;1.40;;
69434;SDS011;56625;54.322;18.582;2023-09-30T05:08:02;7.70;;;1.30;;
69434;SDS011;56625;54.322;18.582;2023-09-30T05:10:30;11.90;;;1.60;;
69434;SDS011;56625;54.322;18.582;2023-09-30T05:12:58;10.20;;;1.60;;
69434;SDS011;56625;54.322;18.582;2023-09-30T05:15:26;9.60;;;1.40;;
69434;SDS011;56625;54.322;18.582;2023-09-30T05:17:57;11.00;;;1.70;;
69434;SDS011;56625;54.322;18.582;2023-09-30T05:20:25;7.20;;;1.50;;
69434;SDS011;56625;54.322;18.582;2023-09-30T05:22:53;10.80;;;1.70;;
69434;SDS011;56625;54.322;18.582;2023-09-30T05:25:21;12.20;;;1.50;;
69434;SDS011;56625;54.322;18.582;2023-09-30T05:27:53;10.10;;;1.70;;
69434;SDS011;56625;54.322;18.582;2023-09-30T05:30:21;8.60;;;1.80;;
69434;SDS011;56625;54.322;18.582;2023-09-30T05:32:50;11.60;;;1.70;;
69434;SDS011;56625;54.322;18.582;2023-09-30T05:35:20;9.30;;;1.50;;
69434;SDS011;56625;54.322;18.582;2023-09-30T05:37:50;10.90;;;1.60;;
69434;SDS011;56625;54.322;18.582;2023-09-30T05:40:21;9.30;;;1.90;;
69434;SDS011;56625;54.322;18.582;2023-09-30T05:42:58;10.20;;;1.60;;
69434;SDS011;56625;54.322;18.582;2023-09-30T05:45:30;10.00;;;1.80;;
69434;SDS011;56625;54.322;18.582;2023-09-30T05:48:01;9.00;;;1.60;;
69434;SDS011;56625;54.322;18.582;2023-09-30T05:50:34;9.40;;;1.50;;
69434;SDS011;56625;54.322;18.582;2023-09-30T05:53:04;14.70;;;2.40;;
69434;SDS011;56625;54.322;18.582;2023-09-30T05:55:32;9.70;;;1.30;;
69434;SDS011;56625;54.322;18.582;2023-09-30T05:58:01;11.00;;;2.10;;
69434;SDS011;56625;54.322;18.582;2023-09-30T06:00:29;10.60;;;1.70;;
69434;SDS011;56625;54.322;18.582;2023-09-30T06:02:59;12.80;;;2.30;;
69434;SDS011;56625;54.322;18.582;2023-09-30T06:05:28;9.60;;;1.50;;
69434;SDS011;56625;54.322;18.582;2023-09-30T06:08:00;10.80;;;1.30;;
69434;SDS011;56625;54.322;18.582;2023-09-30T06:10:32;10.50;;;1.90;;
69434;SDS011;56625;54.322;18.582;2023-09-30T06:13:00;10.80;;;1.60;;
69434;SDS011;56625;54.322;18.582;2023-09-30T06:15:30;14.50;;;2.10;;
69434;SDS011;56625;54.322;18.582;2023-09-30T06:17:59;10.10;;;2.00;;
69434;SDS011;56625;54.322;18.582;2023-09-30T06:20:28;7.80;;;2.00;;
69434;SDS011;56625;54.322;18.582;2023-09-30T06:22:59;11.40;;;1.40;;
69434;SDS011;56625;54.322;18.582;2023-09-30T06:25:30;9.10;;;1.70;;
69434;SDS011;56625;54.322;18.582;2023-09-30T06:28:00;10.40;;;1.70;;
69434;SDS011;56625;54.322;18.582;2023-09-30T06:30:28;10.70;;;1.50;;
69434;SDS011;56625;54.322;18.582;2023-09-30T06:33:01;7.60;;;1.10;;
69434;SDS011;56625;54.322;18.582;2023-09-30T06:35:33;9.40;;;1.40;;
69434;SDS011;56625;54.322;18.582;2023-09-30T06:38:05;11.90;;;2.10;;
69434;SDS011;56625;54.322;18.582;2023-09-30T06:40:35;7.70;;;1.40;;
69434;SDS011;56625;54.322;18.582;2023-09-30T06:43:07;11.20;;;1.90;;
69434;SDS011;56625;54.322;18.582;2023-09-30T06:45:36;10.30;;;1.90;;
69434;SDS011;56625;54.322;18.582;2023-09-30T06:48:10;8.60;;;1.50;;
69434;SDS011;56625;54.322;18.582;2023-09-30T06:50:44;8.70;;;1.60;;
69434;SDS011;56625;54.322;18.582;2023-09-30T06:53:17;9.50;;;1.60;;
69434;SDS011;56625;54.322;18.582;2023-09-30T06:55:46;10.30;;;1.60;;
69434;SDS011;56625;54.322;18.582;2023-09-30T06:58:14;12.00;;;1.60;;
69434;SDS011;56625;54.322;18.582;2023-09-30T07:00:49;9.50;;;1.20;;
69434;SDS011;56625;54.322;18.582;2023-09-30T07:03:19;10.30;;;1.70;;
69434;SDS011;56625;54.322;18.582;2023-09-30T07:05:53;9.00;;;1.60;;
69434;SDS011;56625;54.322;18.582;2023-09-30T07:08:22;7.70;;;1.30;;
69434;SDS011;56625;54.322;18.582;2023-09-30T07:10:50;9.70;;;1.60;;
69434;SDS011;56625;54.322;18.582;2023-09-30T07:13:20;13.90;;;1.50;;
69434;SDS011;56625;54.322;18.582;2023-09-30T07:15:48;8.50;;;1.10;;
69434;SDS011;56625;54.322;18.582;2023-09-30T07:18:17;10.00;;;1.60;;
69434;SDS011;56625;54.322;18.582;2023-09-30T07:20:46;12.40;;;1.50;;
69434;SDS011;56625;54.322;18.582;2023-09-30T07:23:14;6.20;;;1.00;;
69434;SDS011;56625;54.322;18.582;2023-09-30T07:25:47;11.40;;;1.50;;
69434;SDS011;56625;54.322;18.582;2023-09-30T07:28:15;10.40;;;1.60;;
69434;SDS011;56625;54.322;18.582;2023-09-30T07:30:44;9.90;;;1.40;;
69434;SDS011;56625;54.322;18.582;2023-09-30T07:33:12;11.50;;;1.40;;
69434;SDS011;56625;54.322;18.582;2023-09-30T07:35:40;9.20;;;1.60;;
69434;SDS011;56625;54.322;18.582;2023-09-30T07:38:08;9.90;;;1.60;;
69434;SDS011;56625;54.322;18.582;2023-09-30T07:40:36;9.20;;;1.00;;
69434;SDS011;56625;54.322;18.582;2023-09-30T07:43:04;9.60;;;1.50;;
69434;SDS011;56625;54.322;18.582;2023-09-30T07:45:32;6.70;;;1.20;;
69434;SDS011;56625;54.322;18.582;2023-09-30T07:48:00;8.90;;;1.40;;
69434;SDS011;56625;54.322;18.582;2023-09-30T07:50:32;9.80;;;1.40;;
69434;SDS011;56625;54.322;18.582;2023-09-30T07:53:02;10.70;;;1.70;;
69434;SDS011;56625;54.322;18.582;2023-09-30T07:55:30;8.80;;;1.30;;
69434;SDS011;56625;54.322;18.582;2023-09-30T07:57:58;8.20;;;1.20;;
69434;SDS011;56625;54.322;18.582;2023-09-30T08:00:27;7.70;;;1.40;;
69434;SDS011;56625;54.322;18.582;2023-09-30T08:02:55;9.20;;;1.40;;
69434;SDS011;56625;54.322;18.582;2023-09-30T08:05:23;9.40;;;1.40;;
69434;SDS011;56625;54.322;18.582;2023-09-30T08:07:51;10.60;;;1.60;;
69434;SDS011;56625;54.322;18.582;2023-09-30T08:10:19;9.40;;;1.30;;
69434;SDS011;56625;54.322;18.582;2023-09-30T08:12:46;10.20;;;1.30;;
69434;SDS011;56625;54.322;18.582;2023-09-30T08:15:17;8.00;;;1.40;;
69434;SDS011;56625;54.322;18.582;2023-09-30T08:17:45;9.80;;;1.20;;
69434;SDS011;56625;54.322;18.582;2023-09-30T08:20:13;7.50;;;1.20;;
69434;SDS011;56625;54.322;18.582;2023-09-30T08:22:41;6.80;;;1.10;;
69434;SDS011;56625;54.322;18.582;2023-09-30T08:25:09;8.00;;;1.40;;
69434;SDS011;56625;54.322;18.582;2023-09-30T08:27:38;8.70;;;1.20;;
69434;SDS011;56625;54.322;18.582;2023-09-30T08:30:10;7.20;;;1.00;;
69434;SDS011;56625;54.322;18.582;2023-09-30T08:32:38;8.70;;;1.30;;
69434;SDS011;56625;54.322;18.582;2023-09-30T08:35:07;8.40;;;1.10;;
69434;SDS011;56625;54.322;18.582;2023-09-30T08:37:35;8.20;;;1.10;;
69434;SDS011;56625;54.322;18.582;2023-09-30T08:40:04;12.00;;;1.50;;
69434;SDS011;56625;54.322;18.582;2023-09-30T08:42:33;9.80;;;1.00;;
69434;SDS011;56625;54.322;18.582;2023-09-30T08:45:04;7.50;;;0.80;;
69434;SDS011;56625;54.322;18.582;2023-09-30T08:47:36;7.20;;;0.90;;
69434;SDS011;56625;54.322;18.582;2023-09-30T08:50:07;8.70;;;1.30;;
69434;SDS011;56625;54.322;18.582;2023-09-30T08:52:40;7.70;;;1.30;;
69434;SDS011;56625;54.322;18.582;2023-09-30T08:55:09;8.00;;;1.30;;
69434;SDS011;56625;54.322;18.582;2023-09-30T08:57:40;8.10;;;1.20;;
69434;SDS011;56625;54.322;18.582;2023-09-30T09:00:11;7.10;;;1.30;;
69434;SDS011;56625;54.322;18.582;2023-09-30T09:02:41;7.10;;;0.80;;
69434;SDS011;56625;54.322;18.582;2023-09-30T09:05:11;9.80;;;1.00;;
69434;SDS011;56625;54.322;18.582;2023-09-30T09:07:39;7.70;;;0.90;;
69434;SDS011;56625;54.322;18.582;2023-09-30T09:10:11;5.20;;;0.80;;
69434;SDS011;56625;54.322;18.582;2023-09-30T09:12:42;9.20;;;1.00;;
69434;SDS011;56625;54.322;18.582;2023-09-30T09:15:26;10.60;;;1.40;;
69434;SDS011;56625;54.322;18.582;2023-09-30T09:17:58;10.60;;;1.40;;
69434;SDS011;56625;54.322;18.582;2023-09-30T09:20:27;8.80;;;1.10;;
69434;SDS011;56625;54.322;18.582;2023-09-30T09:22:56;6.60;;;1.00;;
69434;SDS011;56625;54.322;18.582;2023-09-30T09:25:25;8.60;;;1.00;;
69434;SDS011;56625;54.322;18.582;2023-09-30T09:27:54;7.30;;;1.30;;
69434;SDS011;56625;54.322;18.582;2023-09-30T09:30:27;8.50;;;1.40;;
69434;SDS011;56625;54.322;18.582;2023-09-30T09:33:01;8.80;;;1.00;;
69434;SDS011;56625;54.322;18.582;2023-09-30T09:35:34;10.40;;;1.40;;
69434;SDS011;56625;54.322;18.582;2023-09-30T09:38:04;8.10;;;1.00;;
69434;SDS011;56625;54.322;18.582;2023-09-30T09:40:35;7.00;;;0.70;;
69434;SDS011;56625;54.322;18.582;2023-09-30T09:43:06;7.30;;;0.90;;
69434;SDS011;56625;54.322;18.582;2023-09-30T09:45:36;6.20;;;0.80;;
69434;SDS011;56625;54.322;18.582;2023-09-30T09:48:06;9.00;;;1.00;;
69434;SDS011;56625;54.322;18.582;2023-09-30T09:50:35;9.90;;;1.00;;
69434;SDS011;56625;54.322;18.582;2023-09-30T09:53:04;10.10;;;0.90;;
69434;SDS011;56625;54.322;18.582;2023-09-30T09:55:32;7.40;;;0.90;;
69434;SDS011;56625;54.322;18.582;2023-09-30T09:58:03;8.70;;;1.30;;
69434;SDS011;56625;54.322;18.582;2023-09-30T10:00:35;5.50;;;0.90;;
69434;SDS011;56625;54.322;18.582;2023-09-30T10:03:06;5.30;;;0.70;;
69434;SDS011;56625;54.322;18.582;2023-09-30T10:05:35;8.20;;;1.10;;
69434;SDS011;56625;54.322;18.582;2023-09-30T10:08:06;9.50;;;1.30;;
69434;SDS011;56625;54.322;18.582;2023-09-30T10:10:38;6.70;;;1.00;;
69434;SDS011;56625;54.322;18.582;2023-09-30T10:13:07;6.30;;;1.00;;
69434;SDS011;56625;54.322;18.582;2023-09-30T10:15:37;7.00;;;1.00;;
69434;SDS011;56625;54.322;18.582;2023-09-30T10:18:08;9.30;;;1.10;;
69434;SDS011;56625;54.322;18.582;2023-09-30T10:20:44;5.90;;;0.70;;
69434;SDS011;56625;54.322;18.582;2023-09-30T10:25:48;7.10;;;1.00;;
69434;SDS011;56625;54.322;18.582;2023-09-30T10:28:34;10.40;;;1.50;;
69434;SDS011;56625;54.322;18.582;2023-09-30T10:36:37;9.40;;;1.00;;
69434;SDS011;56625;54.322;18.582;2023-09-30T10:39:11;11.00;;;1.60;;
69434;SDS011;56625;54.322;18.582;2023-09-30T10:46:53;8.90;;;1.30;;
69434;SDS011;56625;54.322;18.582;2023-09-30T10:54:38;9.20;;;1.00;;
69434;SDS011;56625;54.322;18.582;2023-09-30T10:57:05;8.10;;;1.00;;
69434;SDS011;56625;54.322;18.582;2023-09-30T10:59:34;7.70;;;1.10;;
69434;SDS011;56625;54.322;18.582;2023-09-30T11:02:03;12.10;;;1.40;;
69434;SDS011;56625;54.322;18.582;2023-09-30T11:04:45;10.10;;;1.30;;
69434;SDS011;56625;54.322;18.582;2023-09-30T11:07:22;8.50;;;1.40;;
69434;SDS011;56625;54.322;18.582;2023-09-30T11:09:53;10.10;;;1.00;;
69434;SDS011;56625;54.322;18.582;2023-09-30T11:12:21;7.40;;;1.30;;
69434;SDS011;56625;54.322;18.582;2023-09-30T11:14:58;8.30;;;1.30;;
69434;SDS011;56625;54.322;18.582;2023-09-30T11:17:29;8.80;;;1.20;;
69434;SDS011;56625;54.322;18.582;2023-09-30T11:19:57;7.70;;;1.00;;
69434;SDS011;56625;54.322;18.582;2023-09-30T11:22:25;9.20;;;1.40;;
69434;SDS011;56625;54.322;18.582;2023-09-30T11:24:54;11.30;;;1.30;;
69434;SDS011;56625;54.322;18.582;2023-09-30T11:27:23;11.40;;;1.20;;
69434;SDS011;56625;54.322;18.582;2023-09-30T11:29:52;7.10;;;1.10;;
69434;SDS011;56625;54.322;18.582;2023-09-30T11:32:24;8.90;;;1.40;;
69434;SDS011;56625;54.322;18.582;2023-09-30T11:34:57;7.60;;;1.00;;
69434;SDS011;56625;54.322;18.582;2023-09-30T11:37:32;9.00;;;1.10;;
69434;SDS011;56625;54.322;18.582;2023-09-30T11:40:11;5.80;;;0.70;;
69434;SDS011;56625;54.322;18.582;2023-09-30T11:42:41;10.20;;;1.10;;
69434;SDS011;56625;54.322;18.582;2023-09-30T11:45:22;6.00;;;0.60;;
69434;SDS011;56625;54.322;18.582;2023-09-30T11:47:52;7.10;;;1.30;;
69434;SDS011;56625;54.322;18.582;2023-09-30T11:50:21;7.70;;;1.30;;
69434;SDS011;56625;54.322;18.582;2023-09-30T11:52:51;9.00;;;1.20;;
69434;SDS011;56625;54.322;18.582;2023-09-30T11:55:19;7.00;;;0.80;;
69434;SDS011;56625;54.322;18.582;2023-09-30T11:57:48;6.20;;;0.70;;
69434;SDS011;56625;54.322;18.582;2023-09-30T12:00:18;7.80;;;0.90;;
69434;SDS011;56625;54.322;18.582;2023-09-30T12:02:46;6.20;;;0.80;;
69434;SDS011;56625;54.322;18.582;2023-09-30T12:05:14;6.30;;;1.00;;
69434;SDS011;56625;54.322;18.582;2023-09-30T12:07:42;7.20;;;1.30;;
69434;SDS011;56625;54.322;18.582;2023-09-30T12:10:11;7.90;;;1.10;;
69434;SDS011;56625;54.322;18.582;2023-09-30T12:12:41;6.20;;;0.90;;
69434;SDS011;56625;54.322;18.582;2023-09-30T12:15:09;7.00;;;0.90;;
69434;SDS011;56625;54.322;18.582;2023-09-30T12:17:38;8.50;;;1.30;;
69434;SDS011;56625;54.322;18.582;2023-09-30T12:20:07;11.20;;;1.40;;
69434;SDS011;56625;54.322;18.582;2023-09-30T12:22:36;15.60;;;1.60;;
69434;SDS011;56625;54.322;18.582;2023-09-30T12:25:05;7.50;;;1.10;;
69434;SDS011;56625;54.322;18.582;2023-09-30T12:27:36;10.80;;;1.60;;
69434;SDS011;56625;54.322;18.582;2023-09-30T12:30:04;8.20;;;1.10;;
69434;SDS011;56625;54.322;18.582;2023-09-30T12:32:34;8.70;;;1.30;;
69434;SDS011;56625;54.322;18.582;2023-09-30T12:35:02;7.40;;;0.90;;
69434;SDS011;56625;54.322;18.582;2023-09-30T12:37:32;8.60;;;0.90;;
69434;SDS011;56625;54.322;18.582;2023-09-30T12:40:00;8.70;;;1.10;;
69434;SDS011;56625;54.322;18.582;2023-09-30T12:42:28;8.70;;;1.10;;
69434;SDS011;56625;54.322;18.582;2023-09-30T12:44:56;7.00;;;1.20;;
69434;SDS011;56625;54.322;18.582;2023-09-30T12:47:24;7.60;;;1.00;;
69434;SDS011;56625;54.322;18.582;2023-09-30T12:49:53;9.70;;;1.40;;
69434;SDS011;56625;54.322;18.582;2023-09-30T12:52:21;8.20;;;1.40;;
69434;SDS011;56625;54.322;18.582;2023-09-30T12:54:50;10.40;;;1.10;;
69434;SDS011;56625;54.322;18.582;2023-09-30T12:57:18;5.10;;;0.80;;
69434;SDS011;56625;54.322;18.582;2023-09-30T12:59:46;4.80;;;1.00;;
69434;SDS011;56625;54.322;18.582;2023-09-30T13:02:16;7.50;;;0.80;;
69434;SDS011;56625;54.322;18.582;2023-09-30T13:04:46;9.90;;;1.00;;
69434;SDS011;56625;54.322;18.582;2023-09-30T13:07:14;10.10;;;1.50;;
69434;SDS011;56625;54.322;18.582;2023-09-30T13:09:42;9.50;;;1.10;;
69434;SDS011;56625;54.322;18.582;2023-09-30T13:12:10;10.70;;;1.30;;
69434;SDS011;56625;54.322;18.582;2023-09-30T13:14:38;5.80;;;0.80;;
69434;SDS011;56625;54.322;18.582;2023-09-30T13:17:06;10.00;;;1.20;;
69434;SDS011;56625;54.322;18.582;2023-09-30T13:19:37;8.60;;;1.20;;
69434;SDS011;56625;54.322;18.582;2023-09-30T13:22:05;6.40;;;1.00;;
69434;SDS011;56625;54.322;18.582;2023-09-30T13:24:45;7.30;;;1.10;;
69434;SDS011;56625;54.322;18.582;2023-09-30T13:27:14;8.00;;;1.20;;
69434;SDS011;56625;54.322;18.582;2023-09-30T13:29:45;6.10;;;0.90;;
69434;SDS011;56625;54.322;18.582;2023-09-30T13:32:13;7.20;;;1.00;;
69434;SDS011;56625;54.322;18.582;2023-09-30T13:34:42;8.90;;;1.30;;
69434;SDS011;56625;54.322;18.582;2023-09-30T13:37:10;11.30;;;1.10;;
69434;SDS011;56625;54.322;18.582;2023-09-30T13:39:38;6.50;;;1.00;;
69434;SDS011;56625;54.322;18.582;2023-09-30T13:42:06;8.30;;;0.90;;
69434;SDS011;56625;54.322;18.582;2023-09-30T13:44:34;8.20;;;1.30;;
69434;SDS011;56625;54.322;18.582;2023-09-30T13:47:04;7.80;;;1.00;;
69434;SDS011;56625;54.322;18.582;2023-09-30T13:49:32;7.80;;;1.30;;
69434;SDS011;56625;54.322;18.582;2023-09-30T13:52:01;8.30;;;1.10;;
69434;SDS011;56625;54.322;18.582;2023-09-30T13:54:29;7.90;;;0.90;;
69434;SDS011;56625;54.322;18.582;2023-09-30T13:56:57;7.80;;;1.10;;
69434;SDS011;56625;54.322;18.582;2023-09-30T13:59:25;8.20;;;0.90;;
69434;SDS011;56625;54.322;18.582;2023-09-30T14:01:55;6.30;;;0.90;;
69434;SDS011;56625;54.322;18.582;2023-09-30T14:04:23;8.20;;;1.20;;
69434;SDS011;56625;54.322;18.582;2023-09-30T14:06:51;8.00;;;1.20;;
69434;SDS011;56625;54.322;18.582;2023-09-30T14:09:19;7.90;;;0.90;;
69434;SDS011;56625;54.322;18.582;2023-09-30T14:12:02;8.20;;;1.00;;
69434;SDS011;56625;54.322;18.582;2023-09-30T14:14:35;9.30;;;1.60;;
69434;SDS011;56625;54.322;18.582;2023-09-30T14:17:03;9.50;;;1.30;;
69434;SDS011;56625;54.322;18.582;2023-09-30T14:19:42;9.00;;;1.20;;
69434;SDS011;56625;54.322;18.582;2023-09-30T14:22:10;8.30;;;1.10;;
69434;SDS011;56625;54.322;18.582;2023-09-30T14:24:39;7.70;;;1.00;;
69434;SDS011;56625;54.322;18.582;2023-09-30T14:27:07;7.60;;;1.20;;
69434;SDS011;56625;54.322;18.582;2023-09-30T14:29:36;6.10;;;0.70;;
69434;SDS011;56625;54.322;18.582;2023-09-30T14:32:04;7.40;;;1.20;;
69434;SDS011;56625;54.322;18.582;2023-09-30T14:34:33;6.00;;;0.80;;
69434;SDS011;56625;54.322;18.582;2023-09-30T14:37:01;7.80;;;1.50;;
69434;SDS011;56625;54.322;18.582;2023-09-30T14:39:29;8.30;;;1.10;;
69434;SDS011;56625;54.322;18.582;2023-09-30T14:41:57;10.10;;;1.30;;
69434;SDS011;56625;54.322;18.582;2023-09-30T14:44:25;10.50;;;1.60;;
69434;SDS011;56625;54.322;18.582;2023-09-30T14:46:53;7.80;;;1.30;;
69434;SDS011;56625;54.322;18.582;2023-09-30T14:49:23;10.40;;;1.60;;
69434;SDS011;56625;54.322;18.582;2023-09-30T14:51:51;7.90;;;0.90;;
69434;SDS011;56625;54.322;18.582;2023-09-30T14:54:19;9.00;;;1.00;;
69434;SDS011;56625;54.322;18.582;2023-09-30T14:56:48;11.30;;;1.30;;
69434;SDS011;56625;54.322;18.582;2023-09-30T14:59:16;9.80;;;0.90;;